sensor_id;sensor_type;location;lat;lon;timestamp;temperature;humidity
17495;DHT22;8864;51.970;4.614;2023-01-09T00:01:36;16.40;74.70
17495;DHT22;8864;51.970;4.614;2023-01-09T00:04:09;16.40;74.70
17495;DHT22;8864;51.970;4.614;2023-01-09T00:06:41;16.40;74.70
17495;DHT22;8864;51.970;4.614;2023-01-09T00:09:11;16.40;74.60
17495;DHT22;8864;51.970;4.614;2023-01-09T00:11:38;16.30;74.60
17495;DHT22;8864;51.970;4.614;2023-01-09T00:14:07;16.30;74.60
17495;DHT22;8864;51.970;4.614;2023-01-09T00:16:44;16.30;74.60
17495;DHT22;8864;51.970;4.614;2023-01-09T00:19:14;16.30;74.60
17495;DHT22;8864;51.970;4.614;2023-01-09T00:21:45;16.30;74.50
17495;DHT22;8864;51.970;4.614;2023-01-09T00:24:16;16.30;74.50
17495;DHT22;8864;51.970;4.614;2023-01-09T00:26:44;16.30;74.50
17495;DHT22;8864;51.970;4.614;2023-01-09T00:29:15;16.30;74.50
17495;DHT22;8864;51.970;4.614;2023-01-09T00:31:42;16.30;74.40
17495;DHT22;8864;51.970;4.614;2023-01-09T00:34:09;16.30;74.40
17495;DHT22;8864;51.970;4.614;2023-01-09T00:36:36;16.30;74.30
17495;DHT22;8864;51.970;4.614;2023-01-09T00:39:06;16.30;74.50
17495;DHT22;8864;51.970;4.614;2023-01-09T00:41:38;16.30;74.30
17495;DHT22;8864;51.970;4.614;2023-01-09T00:44:10;16.30;74.20
17495;DHT22;8864;51.970;4.614;2023-01-09T00:46:44;16.30;74.30
17495;DHT22;8864;51.970;4.614;2023-01-09T00:49:11;16.30;74.20
17495;DHT22;8864;51.970;4.614;2023-01-09T00:51:43;16.30;74.20
17495;DHT22;8864;51.970;4.614;2023-01-09T00:54:12;16.30;74.20
17495;DHT22;8864;51.970;4.614;2023-01-09T00:56:42;16.30;74.20
17495;DHT22;8864;51.970;4.614;2023-01-09T00:59:12;16.30;74.20
17495;DHT22;8864;51.970;4.614;2023-01-09T01:01:44;16.30;74.20
17495;DHT22;8864;51.970;4.614;2023-01-09T01:04:16;16.30;74.20
17495;DHT22;8864;51.970;4.614;2023-01-09T01:07:07;16.20;74.30
17495;DHT22;8864;51.970;4.614;2023-01-09T01:09:51;16.20;74.60
17495;DHT22;8864;51.970;4.614;2023-01-09T01:12:21;16.20;74.80
17495;DHT22;8864;51.970;4.614;2023-01-09T01:14:51;16.20;74.80
17495;DHT22;8864;51.970;4.614;2023-01-09T01:17:19;16.20;74.80
17495;DHT22;8864;51.970;4.614;2023-01-09T01:19:46;16.20;74.70
17495;DHT22;8864;51.970;4.614;2023-01-09T01:22:17;16.20;74.60
17495;DHT22;8864;51.970;4.614;2023-01-09T01:24:44;16.20;74.60
17495;DHT22;8864;51.970;4.614;2023-01-09T01:27:12;16.20;74.50
17495;DHT22;8864;51.970;4.614;2023-01-09T01:29:42;16.20;74.50
17495;DHT22;8864;51.970;4.614;2023-01-09T01:32:11;16.20;74.40
17495;DHT22;8864;51.970;4.614;2023-01-09T01:34:41;16.20;74.30
17495;DHT22;8864;51.970;4.614;2023-01-09T01:37:09;16.20;74.30
17495;DHT22;8864;51.970;4.614;2023-01-09T01:39:39;16.20;74.10
17495;DHT22;8864;51.970;4.614;2023-01-09T01:42:07;16.30;74.20
17495;DHT22;8864;51.970;4.614;2023-01-09T01:45:02;16.20;74.10
17495;DHT22;8864;51.970;4.614;2023-01-09T01:47:41;16.20;74.00
17495;DHT22;8864;51.970;4.614;2023-01-09T01:50:24;16.10;74.00
17495;DHT22;8864;51.970;4.614;2023-01-09T01:53:06;16.20;74.00
17495;DHT22;8864;51.970;4.614;2023-01-09T01:55:37;16.20;74.00
17495;DHT22;8864;51.970;4.614;2023-01-09T01:58:05;16.20;74.00
17495;DHT22;8864;51.970;4.614;2023-01-09T02:00:41;16.20;73.90
17495;DHT22;8864;51.970;4.614;2023-01-09T02:03:20;16.20;73.90
17495;DHT22;8864;51.970;4.614;2023-01-09T02:05:52;16.20;73.90
17495;DHT22;8864;51.970;4.614;2023-01-09T02:08:20;16.20;73.90
17495;DHT22;8864;51.970;4.614;2023-01-09T02:10:48;16.20;73.90
17495;DHT22;8864;51.970;4.614;2023-01-09T02:13:17;16.20;73.80
17495;DHT22;8864;51.970;4.614;2023-01-09T02:16:09;16.20;73.80
17495;DHT22;8864;51.970;4.614;2023-01-09T02:18:46;16.20;73.80
17495;DHT22;8864;51.970;4.614;2023-01-09T02:21:35;16.20;73.80
17495;DHT22;8864;51.970;4.614;2023-01-09T02:24:27;16.20;73.80
17495;DHT22;8864;51.970;4.614;2023-01-09T02:27:07;16.20;73.80
17495;DHT22;8864;51.970;4.614;2023-01-09T02:33:06;16.20;73.70
17495;DHT22;8864;51.970;4.614;2023-01-09T02:35:49;16.20;73.70
17495;DHT22;8864;51.970;4.614;2023-01-09T02:38:28;16.20;73.70
17495;DHT22;8864;51.970;4.614;2023-01-09T02:41:03;16.20;73.80
17495;DHT22;8864;51.970;4.614;2023-01-09T02:43:34;16.20;74.50
17495;DHT22;8864;51.970;4.614;2023-01-09T02:46:04;16.20;73.70
17495;DHT22;8864;51.970;4.614;2023-01-09T02:48:44;16.20;73.70
17495;DHT22;8864;51.970;4.614;2023-01-09T02:51:14;16.20;73.70
17495;DHT22;8864;51.970;4.614;2023-01-09T02:54:05;16.20;73.80
17495;DHT22;8864;51.970;4.614;2023-01-09T02:57:09;16.20;73.80
17495;DHT22;8864;51.970;4.614;2023-01-09T02:59:49;16.20;73.80
17495;DHT22;8864;51.970;4.614;2023-01-09T03:02:33;16.10;73.80
17495;DHT22;8864;51.970;4.614;2023-01-09T03:05:10;16.20;73.80
17495;DHT22;8864;51.970;4.614;2023-01-09T03:07:42;16.10;73.70
17495;DHT22;8864;51.970;4.614;2023-01-09T03:10:17;16.10;73.70
17495;DHT22;8864;51.970;4.614;2023-01-09T03:12:51;16.10;73.70
17495;DHT22;8864;51.970;4.614;2023-01-09T03:15:20;16.20;73.70
17495;DHT22;8864;51.970;4.614;2023-01-09T03:17:53;16.10;73.60
17495;DHT22;8864;51.970;4.614;2023-01-09T03:20:33;16.10;73.60
17495;DHT22;8864;51.970;4.614;2023-01-09T03:23:07;16.20;73.60
17495;DHT22;8864;51.970;4.614;2023-01-09T03:25:38;16.20;74.30
17495;DHT22;8864;51.970;4.614;2023-01-09T03:28:16;16.10;73.50
17495;DHT22;8864;51.970;4.614;2023-01-09T03:30:47;16.10;73.50
17495;DHT22;8864;51.970;4.614;2023-01-09T03:33:17;16.20;73.40
17495;DHT22;8864;51.970;4.614;2023-01-09T03:35:48;16.10;73.40
17495;DHT22;8864;51.970;4.614;2023-01-09T03:38:17;16.10;73.30
17495;DHT22;8864;51.970;4.614;2023-01-09T03:40:44;16.10;73.30
17495;DHT22;8864;51.970;4.614;2023-01-09T03:43:14;16.10;73.20
17495;DHT22;8864;51.970;4.614;2023-01-09T03:45:43;16.10;73.20
17495;DHT22;8864;51.970;4.614;2023-01-09T03:48:14;16.10;73.20
17495;DHT22;8864;51.970;4.614;2023-01-09T03:50:47;16.10;73.20
17495;DHT22;8864;51.970;4.614;2023-01-09T03:53:15;16.20;73.20
17495;DHT22;8864;51.970;4.614;2023-01-09T03:55:44;16.10;73.20
17495;DHT22;8864;51.970;4.614;2023-01-09T03:58:12;16.10;73.20
17495;DHT22;8864;51.970;4.614;2023-01-09T04:00:40;16.10;73.20
17495;DHT22;8864;51.970;4.614;2023-01-09T04:03:08;16.10;73.20
17495;DHT22;8864;51.970;4.614;2023-01-09T04:05:39;16.10;73.10
17495;DHT22;8864;51.970;4.614;2023-01-09T04:08:07;16.10;73.10
17495;DHT22;8864;51.970;4.614;2023-01-09T04:10:37;16.10;73.10
17495;DHT22;8864;51.970;4.614;2023-01-09T04:13:06;16.10;73.10
17495;DHT22;8864;51.970;4.614;2023-01-09T04:15:33;16.10;73.10
17495;DHT22;8864;51.970;4.614;2023-01-09T04:18:03;16.10;73.10
17495;DHT22;8864;51.970;4.614;2023-01-09T04:20:37;16.10;73.10
17495;DHT22;8864;51.970;4.614;2023-01-09T04:23:04;16.10;73.10
17495;DHT22;8864;51.970;4.614;2023-01-09T04:25:35;16.10;73.10
17495;DHT22;8864;51.970;4.614;2023-01-09T04:28:05;16.10;73.00
17495;DHT22;8864;51.970;4.614;2023-01-09T04:30:36;16.10;73.10
17495;DHT22;8864;51.970;4.614;2023-01-09T04:33:03;16.10;73.00
17495;DHT22;8864;51.970;4.614;2023-01-09T04:35:33;16.10;73.00
17495;DHT22;8864;51.970;4.614;2023-01-09T04:38:00;16.10;73.00
17495;DHT22;8864;51.970;4.614;2023-01-09T04:40:27;16.10;72.90
17495;DHT22;8864;51.970;4.614;2023-01-09T04:42:59;16.10;72.90
17495;DHT22;8864;51.970;4.614;2023-01-09T04:45:30;16.10;72.90
17495;DHT22;8864;51.970;4.614;2023-01-09T04:48:00;16.10;72.90
17495;DHT22;8864;51.970;4.614;2023-01-09T04:50:32;16.10;72.80
17495;DHT22;8864;51.970;4.614;2023-01-09T04:53:02;16.10;72.80
17495;DHT22;8864;51.970;4.614;2023-01-09T04:55:32;16.10;72.80
17495;DHT22;8864;51.970;4.614;2023-01-09T04:58:11;16.10;72.70
17495;DHT22;8864;51.970;4.614;2023-01-09T05:00:38;16.10;72.70
17495;DHT22;8864;51.970;4.614;2023-01-09T05:03:05;16.10;72.70
17495;DHT22;8864;51.970;4.614;2023-01-09T05:05:32;16.10;72.90
17495;DHT22;8864;51.970;4.614;2023-01-09T05:08:07;16.10;73.00
17495;DHT22;8864;51.970;4.614;2023-01-09T05:10:34;16.10;73.20
17495;DHT22;8864;51.970;4.614;2023-01-09T05:13:10;16.10;73.60
17495;DHT22;8864;51.970;4.614;2023-01-09T05:15:42;16.10;74.00
17495;DHT22;8864;51.970;4.614;2023-01-09T05:18:14;16.10;74.00
17495;DHT22;8864;51.970;4.614;2023-01-09T05:20:44;16.10;74.10
17495;DHT22;8864;51.970;4.614;2023-01-09T05:23:11;16.10;74.20
17495;DHT22;8864;51.970;4.614;2023-01-09T05:25:41;16.10;74.30
17495;DHT22;8864;51.970;4.614;2023-01-09T05:28:14;16.10;74.40
17495;DHT22;8864;51.970;4.614;2023-01-09T05:30:46;16.10;74.40
17495;DHT22;8864;51.970;4.614;2023-01-09T05:33:15;16.10;74.40
17495;DHT22;8864;51.970;4.614;2023-01-09T05:35:43;16.10;74.40
17495;DHT22;8864;51.970;4.614;2023-01-09T05:38:13;16.10;74.40
17495;DHT22;8864;51.970;4.614;2023-01-09T05:40:46;16.10;74.40
17495;DHT22;8864;51.970;4.614;2023-01-09T05:43:19;16.10;74.40
17495;DHT22;8864;51.970;4.614;2023-01-09T05:45:50;16.10;74.40
17495;DHT22;8864;51.970;4.614;2023-01-09T05:48:18;16.10;74.60
17495;DHT22;8864;51.970;4.614;2023-01-09T05:50:45;16.10;74.70
17495;DHT22;8864;51.970;4.614;2023-01-09T05:53:13;16.10;74.90
17495;DHT22;8864;51.970;4.614;2023-01-09T05:55:40;16.10;74.90
17495;DHT22;8864;51.970;4.614;2023-01-09T05:58:10;16.10;74.90
17495;DHT22;8864;51.970;4.614;2023-01-09T06:00:39;16.10;74.90
17495;DHT22;8864;51.970;4.614;2023-01-09T06:03:10;16.10;74.80
17495;DHT22;8864;51.970;4.614;2023-01-09T06:05:43;16.10;74.80
17495;DHT22;8864;51.970;4.614;2023-01-09T06:08:13;16.10;74.70
17495;DHT22;8864;51.970;4.614;2023-01-09T06:10:40;16.10;74.80
17495;DHT22;8864;51.970;4.614;2023-01-09T06:13:07;16.10;74.80
17495;DHT22;8864;51.970;4.614;2023-01-09T06:15:35;16.10;74.70
17495;DHT22;8864;51.970;4.614;2023-01-09T06:18:07;16.10;74.70
17495;DHT22;8864;51.970;4.614;2023-01-09T06:20:34;16.10;74.80
17495;DHT22;8864;51.970;4.614;2023-01-09T06:23:01;16.10;74.80
17495;DHT22;8864;51.970;4.614;2023-01-09T06:25:28;16.10;74.80
17495;DHT22;8864;51.970;4.614;2023-01-09T06:27:57;16.10;74.90
17495;DHT22;8864;51.970;4.614;2023-01-09T06:30:27;16.10;74.80
17495;DHT22;8864;51.970;4.614;2023-01-09T06:32:54;16.10;74.90
17495;DHT22;8864;51.970;4.614;2023-01-09T06:35:23;16.10;74.90
17495;DHT22;8864;51.970;4.614;2023-01-09T06:37:53;16.10;74.90
17495;DHT22;8864;51.970;4.614;2023-01-09T06:40:34;16.10;74.90
17495;DHT22;8864;51.970;4.614;2023-01-09T06:43:07;16.10;75.00
17495;DHT22;8864;51.970;4.614;2023-01-09T06:45:34;16.10;74.90
17495;DHT22;8864;51.970;4.614;2023-01-09T06:48:03;16.10;74.90
17495;DHT22;8864;51.970;4.614;2023-01-09T06:50:33;16.10;74.90
17495;DHT22;8864;51.970;4.614;2023-01-09T06:53:06;16.10;75.00
17495;DHT22;8864;51.970;4.614;2023-01-09T06:55:37;16.10;75.00
17495;DHT22;8864;51.970;4.614;2023-01-09T06:58:04;16.10;75.00
17495;DHT22;8864;51.970;4.614;2023-01-09T07:00:40;16.10;75.00
17495;DHT22;8864;51.970;4.614;2023-01-09T07:03:09;16.10;75.00
17495;DHT22;8864;51.970;4.614;2023-01-09T07:05:46;16.10;75.00
17495;DHT22;8864;51.970;4.614;2023-01-09T07:08:22;16.10;75.00
17495;DHT22;8864;51.970;4.614;2023-01-09T07:10:51;16.10;75.00
17495;DHT22;8864;51.970;4.614;2023-01-09T07:13:18;16.00;75.00
17495;DHT22;8864;51.970;4.614;2023-01-09T07:15:45;16.10;75.10
17495;DHT22;8864;51.970;4.614;2023-01-09T07:18:15;16.00;75.00
17495;DHT22;8864;51.970;4.614;2023-01-09T07:20:44;16.10;75.20
17495;DHT22;8864;51.970;4.614;2023-01-09T07:23:16;16.00;75.20
17495;DHT22;8864;51.970;4.614;2023-01-09T07:25:50;16.00;75.20
17495;DHT22;8864;51.970;4.614;2023-01-09T07:28:17;16.00;75.20
17495;DHT22;8864;51.970;4.614;2023-01-09T07:30:45;16.00;75.20
17495;DHT22;8864;51.970;4.614;2023-01-09T07:33:12;16.00;75.20
17495;DHT22;8864;51.970;4.614;2023-01-09T07:35:39;16.00;75.20
17495;DHT22;8864;51.970;4.614;2023-01-09T07:38:06;16.00;75.20
17495;DHT22;8864;51.970;4.614;2023-01-09T07:40:39;16.00;75.30
17495;DHT22;8864;51.970;4.614;2023-01-09T07:43:11;16.00;75.30
17495;DHT22;8864;51.970;4.614;2023-01-09T07:45:39;16.00;75.30
17495;DHT22;8864;51.970;4.614;2023-01-09T07:48:13;16.00;75.30
17495;DHT22;8864;51.970;4.614;2023-01-09T07:50:42;16.00;76.10
17495;DHT22;8864;51.970;4.614;2023-01-09T07:53:14;16.00;75.30
17495;DHT22;8864;51.970;4.614;2023-01-09T07:55:46;16.00;75.40
17495;DHT22;8864;51.970;4.614;2023-01-09T07:58:14;16.00;75.40
17495;DHT22;8864;51.970;4.614;2023-01-09T08:00:52;16.00;75.40
17495;DHT22;8864;51.970;4.614;2023-01-09T08:03:37;16.00;75.40
17495;DHT22;8864;51.970;4.614;2023-01-09T08:06:07;16.00;75.50
17495;DHT22;8864;51.970;4.614;2023-01-09T08:08:36;16.00;75.50
17495;DHT22;8864;51.970;4.614;2023-01-09T08:11:14;16.00;75.50
17495;DHT22;8864;51.970;4.614;2023-01-09T08:13:41;16.00;75.50
17495;DHT22;8864;51.970;4.614;2023-01-09T08:16:08;16.00;75.50
17495;DHT22;8864;51.970;4.614;2023-01-09T08:18:37;16.00;75.50
17495;DHT22;8864;51.970;4.614;2023-01-09T08:21:04;16.00;75.50
17495;DHT22;8864;51.970;4.614;2023-01-09T08:23:34;16.00;75.50
17495;DHT22;8864;51.970;4.614;2023-01-09T08:26:04;16.00;75.50
17495;DHT22;8864;51.970;4.614;2023-01-09T08:28:35;16.00;75.60
17495;DHT22;8864;51.970;4.614;2023-01-09T08:31:02;16.00;75.60
17495;DHT22;8864;51.970;4.614;2023-01-09T08:33:29;16.00;75.60
17495;DHT22;8864;51.970;4.614;2023-01-09T08:35:57;16.00;75.60
17495;DHT22;8864;51.970;4.614;2023-01-09T08:38:27;16.00;75.60
17495;DHT22;8864;51.970;4.614;2023-01-09T08:40:56;15.90;75.50
17495;DHT22;8864;51.970;4.614;2023-01-09T08:43:28;16.00;75.60
17495;DHT22;8864;51.970;4.614;2023-01-09T08:46:29;15.90;75.60
17495;DHT22;8864;51.970;4.614;2023-01-09T08:49:14;15.90;76.40
17495;DHT22;8864;51.970;4.614;2023-01-09T08:51:41;15.90;75.60
17495;DHT22;8864;51.970;4.614;2023-01-09T08:54:08;15.90;75.60
17495;DHT22;8864;51.970;4.614;2023-01-09T08:56:35;15.90;75.70
17495;DHT22;8864;51.970;4.614;2023-01-09T08:59:02;16.00;76.60
17495;DHT22;8864;51.970;4.614;2023-01-09T09:01:31;15.90;75.80
17495;DHT22;8864;51.970;4.614;2023-01-09T09:03:58;15.90;75.80
17495;DHT22;8864;51.970;4.614;2023-01-09T09:06:27;15.90;75.90
17495;DHT22;8864;51.970;4.614;2023-01-09T09:08:54;15.90;75.80
17495;DHT22;8864;51.970;4.614;2023-01-09T09:11:22;15.90;75.80
17495;DHT22;8864;51.970;4.614;2023-01-09T09:13:49;15.90;75.80
17495;DHT22;8864;51.970;4.614;2023-01-09T09:16:17;16.00;75.80
17495;DHT22;8864;51.970;4.614;2023-01-09T09:18:48;15.90;75.60
17495;DHT22;8864;51.970;4.614;2023-01-09T09:21:17;15.90;75.60
17495;DHT22;8864;51.970;4.614;2023-01-09T09:23:46;15.90;75.50
17495;DHT22;8864;51.970;4.614;2023-01-09T09:26:13;16.00;75.50
17495;DHT22;8864;51.970;4.614;2023-01-09T09:28:45;15.90;75.40
17495;DHT22;8864;51.970;4.614;2023-01-09T09:31:15;15.90;75.30
17495;DHT22;8864;51.970;4.614;2023-01-09T09:33:42;16.00;76.10
17495;DHT22;8864;51.970;4.614;2023-01-09T09:36:10;15.90;75.20
17495;DHT22;8864;51.970;4.614;2023-01-09T09:38:57;16.00;76.00
17495;DHT22;8864;51.970;4.614;2023-01-09T09:41:44;15.90;75.20
17495;DHT22;8864;51.970;4.614;2023-01-09T09:44:46;15.90;75.50
17495;DHT22;8864;51.970;4.614;2023-01-09T09:47:38;15.90;75.50
17495;DHT22;8864;51.970;4.614;2023-01-09T09:50:19;15.90;75.50
17495;DHT22;8864;51.970;4.614;2023-01-09T09:52:58;15.90;75.60
17495;DHT22;8864;51.970;4.614;2023-01-09T09:55:32;15.90;75.70
17495;DHT22;8864;51.970;4.614;2023-01-09T09:58:04;15.90;75.60
17495;DHT22;8864;51.970;4.614;2023-01-09T10:00:34;15.90;75.80
17495;DHT22;8864;51.970;4.614;2023-01-09T10:03:10;15.90;75.80
17495;DHT22;8864;51.970;4.614;2023-01-09T10:05:40;15.90;75.90
17495;DHT22;8864;51.970;4.614;2023-01-09T10:08:17;15.90;76.30
17495;DHT22;8864;51.970;4.614;2023-01-09T10:10:52;15.90;77.90
17495;DHT22;8864;51.970;4.614;2023-01-09T10:13:23;15.90;78.10
17495;DHT22;8864;51.970;4.614;2023-01-09T10:16:24;15.90;77.80
17495;DHT22;8864;51.970;4.614;2023-01-09T10:19:04;15.90;77.60
17495;DHT22;8864;51.970;4.614;2023-01-09T10:21:41;15.90;77.40
17495;DHT22;8864;51.970;4.614;2023-01-09T10:24:31;15.90;77.30
17495;DHT22;8864;51.970;4.614;2023-01-09T10:27:16;15.90;77.20
17495;DHT22;8864;51.970;4.614;2023-01-09T10:29:59;15.90;77.20
17495;DHT22;8864;51.970;4.614;2023-01-09T10:32:48;15.90;77.20
17495;DHT22;8864;51.970;4.614;2023-01-09T10:35:32;15.90;77.20
17495;DHT22;8864;51.970;4.614;2023-01-09T10:38:03;15.90;77.30
17495;DHT22;8864;51.970;4.614;2023-01-09T10:40:40;15.90;77.30
17495;DHT22;8864;51.970;4.614;2023-01-09T10:43:26;15.90;77.70
17495;DHT22;8864;51.970;4.614;2023-01-09T10:45:58;15.90;77.70
17495;DHT22;8864;51.970;4.614;2023-01-09T10:48:29;15.90;78.60
17495;DHT22;8864;51.970;4.614;2023-01-09T10:50:59;15.90;78.40
17495;DHT22;8864;51.970;4.614;2023-01-09T10:53:29;15.90;80.30
17495;DHT22;8864;51.970;4.614;2023-01-09T10:56:07;15.90;80.40
17495;DHT22;8864;51.970;4.614;2023-01-09T10:58:37;15.90;79.70
17495;DHT22;8864;51.970;4.614;2023-01-09T11:01:06;15.90;79.40
17495;DHT22;8864;51.970;4.614;2023-01-09T11:03:34;15.90;79.20
17495;DHT22;8864;51.970;4.614;2023-01-09T11:06:07;15.90;79.00
17495;DHT22;8864;51.970;4.614;2023-01-09T11:08:47;15.90;79.00
17495;DHT22;8864;51.970;4.614;2023-01-09T11:11:31;15.90;79.00
17495;DHT22;8864;51.970;4.614;2023-01-09T11:14:12;15.80;78.80
17495;DHT22;8864;51.970;4.614;2023-01-09T11:16:57;15.80;78.70
17495;DHT22;8864;51.970;4.614;2023-01-09T11:19:26;15.80;78.70
17495;DHT22;8864;51.970;4.614;2023-01-09T11:22:06;15.80;78.70
17495;DHT22;8864;51.970;4.614;2023-01-09T11:24:37;15.80;78.70
17495;DHT22;8864;51.970;4.614;2023-01-09T11:27:26;15.80;78.80
17495;DHT22;8864;51.970;4.614;2023-01-09T11:30:21;15.80;78.70
17495;DHT22;8864;51.970;4.614;2023-01-09T11:32:57;15.80;78.70
17495;DHT22;8864;51.970;4.614;2023-01-09T11:35:27;15.80;78.90
17495;DHT22;8864;51.970;4.614;2023-01-09T11:37:59;15.80;78.90
17495;DHT22;8864;51.970;4.614;2023-01-09T11:40:32;15.80;78.80
17495;DHT22;8864;51.970;4.614;2023-01-09T11:43:17;15.80;78.70
17495;DHT22;8864;51.970;4.614;2023-01-09T11:45:48;15.80;78.70
17495;DHT22;8864;51.970;4.614;2023-01-09T11:48:26;15.80;78.70
17495;DHT22;8864;51.970;4.614;2023-01-09T11:50:56;15.80;78.60
17495;DHT22;8864;51.970;4.614;2023-01-09T11:53:24;15.80;79.00
17495;DHT22;8864;51.970;4.614;2023-01-09T11:55:57;15.80;78.90
17495;DHT22;8864;51.970;4.614;2023-01-09T11:58:30;15.80;78.70
17495;DHT22;8864;51.970;4.614;2023-01-09T12:01:07;15.80;78.50
17495;DHT22;8864;51.970;4.614;2023-01-09T12:03:56;15.90;78.60
17495;DHT22;8864;51.970;4.614;2023-01-09T12:09:28;15.80;78.70
17495;DHT22;8864;51.970;4.614;2023-01-09T12:12:11;15.90;79.60
17495;DHT22;8864;51.970;4.614;2023-01-09T12:15:00;15.90;79.70
17495;DHT22;8864;51.970;4.614;2023-01-09T12:17:46;15.90;80.10
17495;DHT22;8864;51.970;4.614;2023-01-09T12:20:31;15.80;79.70
17495;DHT22;8864;51.970;4.614;2023-01-09T12:23:12;15.80;79.70
17495;DHT22;8864;51.970;4.614;2023-01-09T12:25:48;15.80;79.80
17495;DHT22;8864;51.970;4.614;2023-01-09T12:28:44;15.80;79.90
17495;DHT22;8864;51.970;4.614;2023-01-09T12:34:19;15.80;79.80
17495;DHT22;8864;51.970;4.614;2023-01-09T12:37:02;15.80;79.80
17495;DHT22;8864;51.970;4.614;2023-01-09T12:39:45;15.80;79.90
17495;DHT22;8864;51.970;4.614;2023-01-09T12:42:24;15.80;80.00
17495;DHT22;8864;51.970;4.614;2023-01-09T12:45:15;15.80;80.00
17495;DHT22;8864;51.970;4.614;2023-01-09T12:47:49;15.80;80.00
17495;DHT22;8864;51.970;4.614;2023-01-09T12:50:38;15.80;80.00
17495;DHT22;8864;51.970;4.614;2023-01-09T12:53:15;15.80;79.80
17495;DHT22;8864;51.970;4.614;2023-01-09T12:55:50;15.70;79.60
17495;DHT22;8864;51.970;4.614;2023-01-09T12:58:40;15.70;79.60
17495;DHT22;8864;51.970;4.614;2023-01-09T13:01:13;15.70;79.60
17495;DHT22;8864;51.970;4.614;2023-01-09T13:03:47;15.70;79.60
17495;DHT22;8864;51.970;4.614;2023-01-09T13:06:17;15.70;79.60
17495;DHT22;8864;51.970;4.614;2023-01-09T13:08:51;15.70;79.60
17495;DHT22;8864;51.970;4.614;2023-01-09T13:11:27;15.70;79.40
17495;DHT22;8864;51.970;4.614;2023-01-09T13:14:00;15.70;79.30
17495;DHT22;8864;51.970;4.614;2023-01-09T13:16:32;15.80;79.40
17495;DHT22;8864;51.970;4.614;2023-01-09T13:19:10;15.80;79.40
17495;DHT22;8864;51.970;4.614;2023-01-09T13:21:39;15.80;79.30
17495;DHT22;8864;51.970;4.614;2023-01-09T13:24:13;15.80;79.20
17495;DHT22;8864;51.970;4.614;2023-01-09T13:26:44;15.80;79.20
17495;DHT22;8864;51.970;4.614;2023-01-09T13:29:18;15.80;80.20
17495;DHT22;8864;51.970;4.614;2023-01-09T13:34:50;15.70;79.50
17495;DHT22;8864;51.970;4.614;2023-01-09T13:37:21;15.70;79.30
17495;DHT22;8864;51.970;4.614;2023-01-09T13:39:58;15.70;79.50
17495;DHT22;8864;51.970;4.614;2023-01-09T13:42:28;15.70;79.60
17495;DHT22;8864;51.970;4.614;2023-01-09T13:45:19;15.70;79.50
17495;DHT22;8864;51.970;4.614;2023-01-09T13:47:57;15.70;79.50
17495;DHT22;8864;51.970;4.614;2023-01-09T13:50:48;15.70;79.50
17495;DHT22;8864;51.970;4.614;2023-01-09T13:53:44;15.70;79.50
17495;DHT22;8864;51.970;4.614;2023-01-09T13:56:11;15.70;79.50
17495;DHT22;8864;51.970;4.614;2023-01-09T13:59:00;15.70;79.50
17495;DHT22;8864;51.970;4.614;2023-01-09T14:01:44;15.70;79.60
17495;DHT22;8864;51.970;4.614;2023-01-09T14:04:43;15.60;79.60
17495;DHT22;8864;51.970;4.614;2023-01-09T14:07:43;15.60;79.50
17495;DHT22;8864;51.970;4.614;2023-01-09T14:10:22;15.60;79.50
17495;DHT22;8864;51.970;4.614;2023-01-09T14:12:53;15.60;79.50
17495;DHT22;8864;51.970;4.614;2023-01-09T14:15:29;15.60;79.60
17495;DHT22;8864;51.970;4.614;2023-01-09T14:18:05;15.60;80.20
17495;DHT22;8864;51.970;4.614;2023-01-09T14:20:35;15.60;79.90
17495;DHT22;8864;51.970;4.614;2023-01-09T14:23:05;15.60;79.90
17495;DHT22;8864;51.970;4.614;2023-01-09T14:25:37;15.60;79.90
17495;DHT22;8864;51.970;4.614;2023-01-09T14:28:17;15.60;80.00
17495;DHT22;8864;51.970;4.614;2023-01-09T14:31:10;15.60;80.40
17495;DHT22;8864;51.970;4.614;2023-01-09T14:34:23;15.50;80.40
17495;DHT22;8864;51.970;4.614;2023-01-09T14:36:58;15.50;80.90
17495;DHT22;8864;51.970;4.614;2023-01-09T14:39:28;15.60;80.70
17495;DHT22;8864;51.970;4.614;2023-01-09T14:42:02;15.50;80.60
17495;DHT22;8864;51.970;4.614;2023-01-09T14:44:49;15.50;80.40
17495;DHT22;8864;51.970;4.614;2023-01-09T14:47:23;15.50;80.40
17495;DHT22;8864;51.970;4.614;2023-01-09T14:49:59;15.50;80.40
17495;DHT22;8864;51.970;4.614;2023-01-09T14:52:35;15.50;80.30
17495;DHT22;8864;51.970;4.614;2023-01-09T14:55:15;15.50;80.30
17495;DHT22;8864;51.970;4.614;2023-01-09T14:57:43;15.50;80.30
17495;DHT22;8864;51.970;4.614;2023-01-09T15:00:17;15.50;80.40
17495;DHT22;8864;51.970;4.614;2023-01-09T15:02:46;15.50;80.30
17495;DHT22;8864;51.970;4.614;2023-01-09T15:05:19;15.50;80.30
17495;DHT22;8864;51.970;4.614;2023-01-09T15:07:53;15.50;80.30
17495;DHT22;8864;51.970;4.614;2023-01-09T15:10:30;15.50;80.30
17495;DHT22;8864;51.970;4.614;2023-01-09T15:13:11;15.50;80.30
17495;DHT22;8864;51.970;4.614;2023-01-09T15:16:05;15.50;80.30
17495;DHT22;8864;51.970;4.614;2023-01-09T15:18:37;15.50;80.20
17495;DHT22;8864;51.970;4.614;2023-01-09T15:21:16;15.40;80.20
17495;DHT22;8864;51.970;4.614;2023-01-09T15:23:44;15.40;80.20
17495;DHT22;8864;51.970;4.614;2023-01-09T15:26:23;15.40;80.20
17495;DHT22;8864;51.970;4.614;2023-01-09T15:28:59;15.40;80.20
17495;DHT22;8864;51.970;4.614;2023-01-09T15:31:27;15.40;80.30
17495;DHT22;8864;51.970;4.614;2023-01-09T15:33:55;15.40;80.40
17495;DHT22;8864;51.970;4.614;2023-01-09T15:36:31;15.40;80.60
17495;DHT22;8864;51.970;4.614;2023-01-09T15:38:59;15.40;80.40
17495;DHT22;8864;51.970;4.614;2023-01-09T15:41:29;15.40;80.50
17495;DHT22;8864;51.970;4.614;2023-01-09T15:44:16;15.40;80.90
17495;DHT22;8864;51.970;4.614;2023-01-09T15:46:45;15.40;80.90
17495;DHT22;8864;51.970;4.614;2023-01-09T15:49:15;15.40;81.60
17495;DHT22;8864;51.970;4.614;2023-01-09T15:51:45;15.40;81.30
17495;DHT22;8864;51.970;4.614;2023-01-09T15:54:26;15.40;81.10
17495;DHT22;8864;51.970;4.614;2023-01-09T15:59:49;15.40;81.10
17495;DHT22;8864;51.970;4.614;2023-01-09T16:02:16;15.40;81.20
17495;DHT22;8864;51.970;4.614;2023-01-09T16:05:05;15.30;81.00
17495;DHT22;8864;51.970;4.614;2023-01-09T16:07:33;15.40;81.00
17495;DHT22;8864;51.970;4.614;2023-01-09T16:10:00;15.30;80.90
17495;DHT22;8864;51.970;4.614;2023-01-09T16:12:27;15.30;80.70
17495;DHT22;8864;51.970;4.614;2023-01-09T16:14:57;15.30;80.60
17495;DHT22;8864;51.970;4.614;2023-01-09T16:17:25;15.30;80.50
17495;DHT22;8864;51.970;4.614;2023-01-09T16:19:56;15.30;80.40
17495;DHT22;8864;51.970;4.614;2023-01-09T16:22:25;15.30;80.40
17495;DHT22;8864;51.970;4.614;2023-01-09T16:24:55;15.30;80.40
17495;DHT22;8864;51.970;4.614;2023-01-09T16:27:24;15.30;80.40
17495;DHT22;8864;51.970;4.614;2023-01-09T16:29:57;15.30;80.30
17495;DHT22;8864;51.970;4.614;2023-01-09T16:32:26;15.30;80.30
17495;DHT22;8864;51.970;4.614;2023-01-09T16:34:54;15.30;80.20
17495;DHT22;8864;51.970;4.614;2023-01-09T16:37:23;15.30;80.20
17495;DHT22;8864;51.970;4.614;2023-01-09T16:40:22;15.30;80.20
17495;DHT22;8864;51.970;4.614;2023-01-09T16:42:51;15.30;80.20